sensor_id;sensor_type;location;lat;lon;timestamp;pressure;altitude;pressure_sealevel;temperature;humidity
61357;BME280;47227;46.752;23.576;2023-05-12T00:01:49;96627.35;;;8.35;55.21
61357;BME280;47227;46.752;23.576;2023-05-12T00:04:19;96622.78;;;8.32;56.02
61357;BME280;47227;46.752;23.576;2023-05-12T00:06:59;96623.41;;;8.30;55.91
61357;BME280;47227;46.752;23.576;2023-05-12T00:09:47;96620.42;;;8.28;55.67
61357;BME280;47227;46.752;23.576;2023-05-12T00:12:15;96613.31;;;8.25;55.52
61357;BME280;47227;46.752;23.576;2023-05-12T00:14:42;96618.52;;;8.22;55.82
61357;BME280;47227;46.752;23.576;2023-05-12T00:17:30;96614.77;;;8.21;56.07
61357;BME280;47227;46.752;23.576;2023-05-12T00:19:57;96615.09;;;8.18;56.49
61357;BME280;47227;46.752;23.576;2023-05-12T00:22:38;96612.66;;;8.16;56.28
61357;BME280;47227;46.752;23.576;2023-05-12T00:25:08;96615.53;;;8.13;56.17
61357;BME280;47227;46.752;23.576;2023-05-12T00:27:48;96612.16;;;8.10;56.49
61357;BME280;47227;46.752;23.576;2023-05-12T00:30:15;96613.48;;;8.07;56.60
61357;BME280;47227;46.752;23.576;2023-05-12T00:32:42;96616.53;;;8.05;56.83
61357;BME280;47227;46.752;23.576;2023-05-12T00:35:14;96615.45;;;8.02;56.68
61357;BME280;47227;46.752;23.576;2023-05-12T00:37:43;96611.63;;;7.99;57.19
61357;BME280;47227;46.752;23.576;2023-05-12T00:40:29;96608.52;;;7.97;57.16
61357;BME280;47227;46.752;23.576;2023-05-12T00:43:03;96610.23;;;7.94;57.74
61357;BME280;47227;46.752;23.576;2023-05-12T00:45:32;96611.67;;;7.93;58.26
61357;BME280;47227;46.752;23.576;2023-05-12T00:48:05;96615.10;;;7.91;57.44
61357;BME280;47227;46.752;23.576;2023-05-12T00:50:45;96610.11;;;7.89;57.71
61357;BME280;47227;46.752;23.576;2023-05-12T00:53:26;96612.21;;;7.88;57.55
61357;BME280;47227;46.752;23.576;2023-05-12T00:56:04;96616.34;;;7.86;58.02
61357;BME280;47227;46.752;23.576;2023-05-12T00:58:51;96616.31;;;7.85;58.04
61357;BME280;47227;46.752;23.576;2023-05-12T01:01:25;96618.05;;;7.84;58.16
61357;BME280;47227;46.752;23.576;2023-05-12T01:04:06;96620.06;;;7.81;58.49
61357;BME280;47227;46.752;23.576;2023-05-12T01:06:45;96617.21;;;7.80;58.24
61357;BME280;47227;46.752;23.576;2023-05-12T01:09:15;96613.20;;;7.77;58.02
61357;BME280;47227;46.752;23.576;2023-05-12T01:11:44;96611.89;;;7.76;58.04
61357;BME280;47227;46.752;23.576;2023-05-12T01:14:18;96611.43;;;7.74;58.17
61357;BME280;47227;46.752;23.576;2023-05-12T01:16:50;96608.35;;;7.72;58.35
61357;BME280;47227;46.752;23.576;2023-05-12T01:19:37;96610.09;;;7.71;58.07
61357;BME280;47227;46.752;23.576;2023-05-12T01:22:17;96608.77;;;7.69;58.02
61357;BME280;47227;46.752;23.576;2023-05-12T01:24:47;96608.75;;;7.70;58.11
61357;BME280;47227;46.752;23.576;2023-05-12T01:27:16;96606.08;;;7.69;57.98
61357;BME280;47227;46.752;23.576;2023-05-12T01:29:46;96605.12;;;7.68;58.11
61357;BME280;47227;46.752;23.576;2023-05-12T01:32:14;96606.68;;;7.68;58.31
61357;BME280;47227;46.752;23.576;2023-05-12T01:34:41;96605.59;;;7.69;58.46
61357;BME280;47227;46.752;23.576;2023-05-12T01:37:09;96608.19;;;7.70;59.15
61357;BME280;47227;46.752;23.576;2023-05-12T01:39:37;96602.84;;;7.70;58.88
61357;BME280;47227;46.752;23.576;2023-05-12T01:42:04;96603.45;;;7.70;58.49
61357;BME280;47227;46.752;23.576;2023-05-12T01:44:33;96600.16;;;7.70;58.74
61357;BME280;47227;46.752;23.576;2023-05-12T01:46:59;96601.52;;;7.70;58.59
61357;BME280;47227;46.752;23.576;2023-05-12T01:49:27;96595.86;;;7.70;58.60
61357;BME280;47227;46.752;23.576;2023-05-12T01:51:54;96597.30;;;7.71;58.65
61357;BME280;47227;46.752;23.576;2023-05-12T01:54:26;96600.17;;;7.71;58.83
61357;BME280;47227;46.752;23.576;2023-05-12T01:56:53;96597.11;;;7.72;59.18
61357;BME280;47227;46.752;23.576;2023-05-12T01:59:20;96597.79;;;7.73;59.09
61357;BME280;47227;46.752;23.576;2023-05-12T02:01:46;96591.54;;;7.74;59.64
61357;BME280;47227;46.752;23.576;2023-05-12T02:04:16;96595.39;;;7.75;58.93
61357;BME280;47227;46.752;23.576;2023-05-12T02:06:44;96596.38;;;7.77;58.89
61357;BME280;47227;46.752;23.576;2023-05-12T02:09:10;96596.66;;;7.79;58.94
61357;BME280;47227;46.752;23.576;2023-05-12T02:11:37;96598.60;;;7.81;58.82
61357;BME280;47227;46.752;23.576;2023-05-12T02:14:03;96599.30;;;7.84;59.10
61357;BME280;47227;46.752;23.576;2023-05-12T02:16:30;96596.17;;;7.86;60.26
61357;BME280;47227;46.752;23.576;2023-05-12T02:18:57;96591.77;;;7.87;59.39
61357;BME280;47227;46.752;23.576;2023-05-12T02:21:23;96590.23;;;7.88;59.23
61357;BME280;47227;46.752;23.576;2023-05-12T02:23:52;96590.17;;;7.90;59.85
61357;BME280;47227;46.752;23.576;2023-05-12T02:26:18;96595.42;;;7.91;59.54
61357;BME280;47227;46.752;23.576;2023-05-12T02:28:45;96594.52;;;7.92;59.28
61357;BME280;47227;46.752;23.576;2023-05-12T02:31:12;96593.77;;;7.94;59.21
61357;BME280;47227;46.752;23.576;2023-05-12T02:33:38;96595.41;;;7.95;59.21
61357;BME280;47227;46.752;23.576;2023-05-12T02:36:05;96600.06;;;7.95;61.01
61357;BME280;47227;46.752;23.576;2023-05-12T02:38:32;96604.20;;;7.95;59.71
61357;BME280;47227;46.752;23.576;2023-05-12T02:40:58;96605.42;;;7.96;59.45
61357;BME280;47227;46.752;23.576;2023-05-12T02:43:25;96603.75;;;7.98;59.89
61357;BME280;47227;46.752;23.576;2023-05-12T02:45:53;96602.38;;;7.99;60.91
61357;BME280;47227;46.752;23.576;2023-05-12T02:48:20;96606.36;;;8.02;60.57
61357;BME280;47227;46.752;23.576;2023-05-12T02:50:46;96605.80;;;8.05;59.99
61357;BME280;47227;46.752;23.576;2023-05-12T02:53:13;96603.22;;;8.08;60.27
61357;BME280;47227;46.752;23.576;2023-05-12T02:55:39;96604.59;;;8.11;60.73
61357;BME280;47227;46.752;23.576;2023-05-12T02:58:06;96607.08;;;8.14;59.96
61357;BME280;47227;46.752;23.576;2023-05-12T03:00:33;96609.67;;;8.17;60.00
61357;BME280;47227;46.752;23.576;2023-05-12T03:02:59;96605.80;;;8.19;61.46
61357;BME280;47227;46.752;23.576;2023-05-12T03:05:26;96603.20;;;8.20;61.44
61357;BME280;47227;46.752;23.576;2023-05-12T03:07:56;96606.39;;;8.22;61.74
61357;BME280;47227;46.752;23.576;2023-05-12T03:10:22;96603.30;;;8.24;61.80
61357;BME280;47227;46.752;23.576;2023-05-12T03:12:49;96601.39;;;8.27;61.36
61357;BME280;47227;46.752;23.576;2023-05-12T03:15:16;96604.66;;;8.28;62.04
61357;BME280;47227;46.752;23.576;2023-05-12T03:17:42;96609.73;;;8.30;60.90
61357;BME280;47227;46.752;23.576;2023-05-12T03:20:09;96610.44;;;8.34;60.96
61357;BME280;47227;46.752;23.576;2023-05-12T03:22:36;96611.05;;;8.36;61.17
61357;BME280;47227;46.752;23.576;2023-05-12T03:25:03;96611.14;;;8.35;61.71
61357;BME280;47227;46.752;23.576;2023-05-12T03:27:31;96613.52;;;8.33;61.79
61357;BME280;47227;46.752;23.576;2023-05-12T03:29:58;96612.05;;;8.33;60.99
61357;BME280;47227;46.752;23.576;2023-05-12T03:32:26;96613.57;;;8.38;60.45
61357;BME280;47227;46.752;23.576;2023-05-12T03:34:54;96613.26;;;8.41;60.58
61357;BME280;47227;46.752;23.576;2023-05-12T03:37:20;96615.99;;;8.44;60.54
61357;BME280;47227;46.752;23.576;2023-05-12T03:39:48;96615.95;;;8.47;60.98
61357;BME280;47227;46.752;23.576;2023-05-12T03:42:15;96615.88;;;8.48;60.71
61357;BME280;47227;46.752;23.576;2023-05-12T03:44:41;96615.48;;;8.51;60.59
61357;BME280;47227;46.752;23.576;2023-05-12T03:47:09;96613.58;;;8.54;60.23
61357;BME280;47227;46.752;23.576;2023-05-12T03:49:36;96615.05;;;8.57;60.23
61357;BME280;47227;46.752;23.576;2023-05-12T03:52:05;96617.38;;;8.60;60.62
61357;BME280;47227;46.752;23.576;2023-05-12T03:54:31;96618.95;;;8.63;60.63
61357;BME280;47227;46.752;23.576;2023-05-12T03:56:58;96622.89;;;8.65;60.29
61357;BME280;47227;46.752;23.576;2023-05-12T03:59:24;96625.32;;;8.69;60.14
61357;BME280;47227;46.752;23.576;2023-05-12T04:01:51;96628.13;;;8.73;60.13
61357;BME280;47227;46.752;23.576;2023-05-12T04:04:18;96630.02;;;8.75;60.35
61357;BME280;47227;46.752;23.576;2023-05-12T04:06:45;96636.18;;;8.80;60.01
61357;BME280;47227;46.752;23.576;2023-05-12T04:09:11;96633.98;;;8.84;59.85
61357;BME280;47227;46.752;23.576;2023-05-12T04:11:38;96634.73;;;8.87;60.32
61357;BME280;47227;46.752;23.576;2023-05-12T04:14:05;96632.66;;;8.91;59.94
61357;BME280;47227;46.752;23.576;2023-05-12T04:16:31;96636.71;;;8.94;60.05
61357;BME280;47227;46.752;23.576;2023-05-12T04:18:58;96638.58;;;8.97;59.91
61357;BME280;47227;46.752;23.576;2023-05-12T04:21:25;96639.83;;;9.00;59.84
61357;BME280;47227;46.752;23.576;2023-05-12T04:23:51;96640.85;;;9.03;59.82
61357;BME280;47227;46.752;23.576;2023-05-12T04:26:18;96639.61;;;9.06;59.72
61357;BME280;47227;46.752;23.576;2023-05-12T04:28:45;96641.92;;;9.09;59.71
61357;BME280;47227;46.752;23.576;2023-05-12T04:31:13;96638.73;;;9.12;59.56
61357;BME280;47227;46.752;23.576;2023-05-12T04:33:39;96640.83;;;9.14;59.52
61357;BME280;47227;46.752;23.576;2023-05-12T04:36:08;96643.42;;;9.18;59.64
61357;BME280;47227;46.752;23.576;2023-05-12T04:38:35;96643.25;;;9.20;59.46
61357;BME280;47227;46.752;23.576;2023-05-12T04:41:02;96647.73;;;9.24;59.26
61357;BME280;47227;46.752;23.576;2023-05-12T04:43:28;96647.42;;;9.28;59.23
61357;BME280;47227;46.752;23.576;2023-05-12T04:45:59;96647.75;;;9.32;59.43
61357;BME280;47227;46.752;23.576;2023-05-12T04:48:27;96652.28;;;9.36;59.04
61357;BME280;47227;46.752;23.576;2023-05-12T04:50:58;96653.02;;;9.39;59.45
61357;BME280;47227;46.752;23.576;2023-05-12T04:53:26;96654.81;;;9.44;59.38
61357;BME280;47227;46.752;23.576;2023-05-12T04:55:53;96651.77;;;9.49;59.30
61357;BME280;47227;46.752;23.576;2023-05-12T04:58:22;96654.27;;;9.56;59.78
61357;BME280;47227;46.752;23.576;2023-05-12T05:00:49;96650.23;;;9.59;59.64
61357;BME280;47227;46.752;23.576;2023-05-12T05:03:16;96647.79;;;9.62;59.72
61357;BME280;47227;46.752;23.576;2023-05-12T05:05:42;96646.30;;;9.66;59.41
61357;BME280;47227;46.752;23.576;2023-05-12T05:08:09;96655.67;;;9.74;59.56
61357;BME280;47227;46.752;23.576;2023-05-12T05:10:36;96652.65;;;9.80;59.16
61357;BME280;47227;46.752;23.576;2023-05-12T05:13:02;96652.81;;;9.85;58.90
61357;BME280;47227;46.752;23.576;2023-05-12T05:15:29;96650.59;;;9.90;58.62
61357;BME280;47227;46.752;23.576;2023-05-12T05:17:56;96653.45;;;9.95;58.24
61357;BME280;47227;46.752;23.576;2023-05-12T05:20:22;96656.77;;;10.01;58.12
61357;BME280;47227;46.752;23.576;2023-05-12T05:22:55;96657.19;;;10.06;57.91
61357;BME280;47227;46.752;23.576;2023-05-12T05:25:21;96659.10;;;10.11;57.46
61357;BME280;47227;46.752;23.576;2023-05-12T05:27:48;96657.61;;;10.18;57.28
61357;BME280;47227;46.752;23.576;2023-05-12T05:30:14;96659.70;;;10.27;57.25
61357;BME280;47227;46.752;23.576;2023-05-12T05:32:41;96662.44;;;10.31;56.98
61357;BME280;47227;46.752;23.576;2023-05-12T05:35:09;96662.73;;;10.39;56.67
61357;BME280;47227;46.752;23.576;2023-05-12T05:37:39;96664.14;;;10.46;57.87
61357;BME280;47227;46.752;23.576;2023-05-12T05:40:07;96665.36;;;10.52;57.28
61357;BME280;47227;46.752;23.576;2023-05-12T05:42:34;96667.48;;;10.57;56.66
61357;BME280;47227;46.752;23.576;2023-05-12T05:45:01;96673.00;;;10.61;56.35
61357;BME280;47227;46.752;23.576;2023-05-12T05:47:28;96675.46;;;10.67;56.66
61357;BME280;47227;46.752;23.576;2023-05-12T05:49:57;96675.45;;;10.72;56.81
61357;BME280;47227;46.752;23.576;2023-05-12T05:52:23;96675.04;;;10.76;56.85
61357;BME280;47227;46.752;23.576;2023-05-12T05:54:50;96680.55;;;10.80;56.52
61357;BME280;47227;46.752;23.576;2023-05-12T05:57:17;96686.70;;;10.80;56.63
61357;BME280;47227;46.752;23.576;2023-05-12T05:59:44;96685.35;;;10.81;56.66
61357;BME280;47227;46.752;23.576;2023-05-12T06:02:15;96685.33;;;10.86;56.61
61357;BME280;47227;46.752;23.576;2023-05-12T06:04:42;96689.05;;;10.90;56.29
61357;BME280;47227;46.752;23.576;2023-05-12T06:07:09;96690.87;;;10.91;56.19
61357;BME280;47227;46.752;23.576;2023-05-12T06:09:35;96692.64;;;10.94;56.08
61357;BME280;47227;46.752;23.576;2023-05-12T06:12:02;96689.31;;;10.99;55.89
61357;BME280;47227;46.752;23.576;2023-05-12T06:14:28;96690.80;;;11.04;55.77
61357;BME280;47227;46.752;23.576;2023-05-12T06:16:56;96692.57;;;11.07;55.63
61357;BME280;47227;46.752;23.576;2023-05-12T06:19:24;96694.24;;;11.13;55.54
61357;BME280;47227;46.752;23.576;2023-05-12T06:21:51;96696.11;;;11.19;55.27
61357;BME280;47227;46.752;23.576;2023-05-12T06:24:21;96695.94;;;11.26;54.97
61357;BME280;47227;46.752;23.576;2023-05-12T06:26:48;96694.56;;;11.36;54.84
61357;BME280;47227;46.752;23.576;2023-05-12T06:29:15;96699.33;;;11.45;54.85
61357;BME280;47227;46.752;23.576;2023-05-12T06:31:42;96705.55;;;11.55;54.61
61357;BME280;47227;46.752;23.576;2023-05-12T06:34:10;96705.55;;;11.63;54.24
61357;BME280;47227;46.752;23.576;2023-05-12T06:37:58;96704.53;;;11.78;54.07
61357;BME280;47227;46.752;23.576;2023-05-12T06:46:17;96707.73;;;12.16;52.75
61357;BME280;47227;46.752;23.576;2023-05-12T06:55:38;96708.47;;;12.62;50.08
61357;BME280;47227;46.752;23.576;2023-05-12T07:49:26;96702.06;;;14.09;43.69
61357;BME280;47227;46.752;23.576;2023-05-12T08:00:19;96701.91;;;14.67;42.09
61357;BME280;47227;46.752;23.576;2023-05-12T08:04:14;96696.48;;;14.75;41.19
61357;BME280;47227;46.752;23.576;2023-05-12T08:09:12;96697.31;;;14.88;41.08
61357;BME280;47227;46.752;23.576;2023-05-12T08:12:11;96701.92;;;14.98;40.94
61357;BME280;47227;46.752;23.576;2023-05-12T08:15:49;96703.34;;;14.97;40.06
61357;BME280;47227;46.752;23.576;2023-05-12T08:29:17;96713.83;;;14.56;39.96
61357;BME280;47227;46.752;23.576;2023-05-12T08:32:04;96714.42;;;14.52;39.29
61357;BME280;47227;46.752;23.576;2023-05-12T08:34:39;96714.55;;;14.38;39.19
61357;BME280;47227;46.752;23.576;2023-05-12T08:37:06;96714.95;;;14.30;39.68
61357;BME280;47227;46.752;23.576;2023-05-12T08:39:35;96715.52;;;14.25;39.92
61357;BME280;47227;46.752;23.576;2023-05-12T08:42:22;96718.11;;;14.27;40.37
61357;BME280;47227;46.752;23.576;2023-05-12T08:44:55;96719.17;;;14.16;39.62
61357;BME280;47227;46.752;23.576;2023-05-12T08:47:36;96717.63;;;14.11;39.92
61357;BME280;47227;46.752;23.576;2023-05-12T08:50:09;96717.52;;;14.13;40.02
61357;BME280;47227;46.752;23.576;2023-05-12T08:52:37;96720.69;;;14.08;40.32
61357;BME280;47227;46.752;23.576;2023-05-12T08:55:06;96717.92;;;14.22;40.94
61357;BME280;47227;46.752;23.576;2023-05-12T08:57:36;96720.88;;;14.36;41.18
61357;BME280;47227;46.752;23.576;2023-05-12T09:00:06;96720.91;;;14.48;41.34
61357;BME280;47227;46.752;23.576;2023-05-12T09:02:36;96721.17;;;14.59;41.08
61357;BME280;47227;46.752;23.576;2023-05-12T09:05:21;96718.20;;;14.65;40.24
61357;BME280;47227;46.752;23.576;2023-05-12T09:07:56;96715.31;;;14.65;40.07
61357;BME280;47227;46.752;23.576;2023-05-12T09:10:26;96716.54;;;14.68;39.85
61357;BME280;47227;46.752;23.576;2023-05-12T09:13:07;96716.76;;;14.81;40.30
61357;BME280;47227;46.752;23.576;2023-05-12T09:15:42;96721.09;;;14.93;39.45
61357;BME280;47227;46.752;23.576;2023-05-12T09:18:11;96725.16;;;14.96;39.12
61357;BME280;47227;46.752;23.576;2023-05-12T09:20:38;96725.39;;;15.04;39.46
61357;BME280;47227;46.752;23.576;2023-05-12T09:23:14;96729.92;;;15.14;40.02
61357;BME280;47227;46.752;23.576;2023-05-12T09:25:41;96727.86;;;15.23;39.60
61357;BME280;47227;46.752;23.576;2023-05-12T09:28:08;96734.25;;;15.24;39.53
61357;BME280;47227;46.752;23.576;2023-05-12T09:30:35;96741.39;;;15.19;36.96
61357;BME280;47227;46.752;23.576;2023-05-12T09:33:06;96741.60;;;14.99;34.59
61357;BME280;47227;46.752;23.576;2023-05-12T09:35:39;96741.54;;;14.89;34.02
61357;BME280;47227;46.752;23.576;2023-05-12T09:38:09;96735.93;;;14.84;34.10
61357;BME280;47227;46.752;23.576;2023-05-12T09:40:36;96744.17;;;14.77;33.23
61357;BME280;47227;46.752;23.576;2023-05-12T09:43:05;96737.68;;;14.77;33.44
61357;BME280;47227;46.752;23.576;2023-05-12T09:45:34;96741.86;;;14.83;34.01
61357;BME280;47227;46.752;23.576;2023-05-12T09:48:08;96744.70;;;14.80;34.21
61357;BME280;47227;46.752;23.576;2023-05-12T09:51:16;96745.63;;;14.66;34.12
61357;BME280;47227;46.752;23.576;2023-05-12T09:53:44;96747.11;;;14.36;34.22
61357;BME280;47227;46.752;23.576;2023-05-12T09:56:13;96745.10;;;14.21;34.96
61357;BME280;47227;46.752;23.576;2023-05-12T09:58:46;96751.73;;;14.15;35.51
61357;BME280;47227;46.752;23.576;2023-05-12T10:01:16;96749.90;;;14.07;35.41
61357;BME280;47227;46.752;23.576;2023-05-12T10:03:56;96749.73;;;14.05;35.63
61357;BME280;47227;46.752;23.576;2023-05-12T10:06:32;96745.80;;;14.12;35.65
61357;BME280;47227;46.752;23.576;2023-05-12T10:11:51;96742.16;;;14.09;36.46
61357;BME280;47227;46.752;23.576;2023-05-12T10:14:21;96740.32;;;14.10;36.14
61357;BME280;47227;46.752;23.576;2023-05-12T10:16:49;96739.73;;;14.25;36.86
61357;BME280;47227;46.752;23.576;2023-05-12T10:19:24;96743.84;;;14.36;36.76
61357;BME280;47227;46.752;23.576;2023-05-12T10:22:10;96747.02;;;14.43;36.73
61357;BME280;47227;46.752;23.576;2023-05-12T10:24:38;96745.34;;;14.49;36.90
61357;BME280;47227;46.752;23.576;2023-05-12T10:27:07;96751.33;;;14.62;37.42
61357;BME280;47227;46.752;23.576;2023-05-12T10:29:35;96753.73;;;14.75;37.24
61357;BME280;47227;46.752;23.576;2023-05-12T10:32:07;96755.69;;;14.81;37.40
61357;BME280;47227;46.752;23.576;2023-05-12T10:34:40;96754.79;;;14.87;37.79
61357;BME280;47227;46.752;23.576;2023-05-12T10:37:10;96757.27;;;14.84;38.96
61357;BME280;47227;46.752;23.576;2023-05-12T10:39:48;96763.35;;;14.80;38.91
61357;BME280;47227;46.752;23.576;2023-05-12T10:42:19;96770.77;;;14.76;39.14
61357;BME280;47227;46.752;23.576;2023-05-12T10:44:52;96776.16;;;14.77;39.60
61357;BME280;47227;46.752;23.576;2023-05-12T10:47:36;96777.27;;;14.69;39.49
61357;BME280;47227;46.752;23.576;2023-05-12T10:50:04;96775.88;;;14.60;39.93
61357;BME280;47227;46.752;23.576;2023-05-12T10:52:31;96779.41;;;14.62;39.99
61357;BME280;47227;46.752;23.576;2023-05-12T10:55:00;96781.73;;;14.67;39.92
61357;BME280;47227;46.752;23.576;2023-05-12T10:57:28;96779.80;;;14.69;39.50
61357;BME280;47227;46.752;23.576;2023-05-12T11:00:04;96784.96;;;14.67;39.41
61357;BME280;47227;46.752;23.576;2023-05-12T11:02:49;96787.20;;;14.57;39.30
61357;BME280;47227;46.752;23.576;2023-05-12T11:05:18;96786.83;;;14.54;39.76
61357;BME280;47227;46.752;23.576;2023-05-12T11:07:48;96789.08;;;14.58;40.03
61357;BME280;47227;46.752;23.576;2023-05-12T11:10:19;96795.52;;;14.64;40.43
61357;BME280;47227;46.752;23.576;2023-05-12T11:12:48;96800.42;;;14.64;40.02
61357;BME280;47227;46.752;23.576;2023-05-12T11:15:25;96801.11;;;14.61;40.35
61357;BME280;47227;46.752;23.576;2023-05-12T11:17:55;96803.86;;;14.61;40.26
61357;BME280;47227;46.752;23.576;2023-05-12T11:20:25;96808.80;;;14.47;40.18
61357;BME280;47227;46.752;23.576;2023-05-12T11:22:58;96812.51;;;14.38;40.63
61357;BME280;47227;46.752;23.576;2023-05-12T11:25:26;96812.86;;;14.36;40.60
61357;BME280;47227;46.752;23.576;2023-05-12T11:27:55;96815.08;;;14.32;40.28
61357;BME280;47227;46.752;23.576;2023-05-12T11:30:22;96817.23;;;14.20;40.38
61357;BME280;47227;46.752;23.576;2023-05-12T13:44:21;96832.67;;;12.80;48.68
61357;BME280;47227;46.752;23.576;2023-05-12T13:51:07;96839.27;;;12.72;48.65
61357;BME280;47227;46.752;23.576;2023-05-12T13:53:41;96837.54;;;12.67;48.70
61357;BME280;47227;46.752;23.576;2023-05-12T13:56:54;96836.00;;;12.62;48.78
61357;BME280;47227;46.752;23.576;2023-05-12T13:59:30;96836.63;;;12.57;48.99
61357;BME280;47227;46.752;23.576;2023-05-12T14:08:13;96838.55;;;12.29;50.32
61357;BME280;47227;46.752;23.576;2023-05-12T14:10:47;96836.13;;;12.25;50.60
61357;BME280;47227;46.752;23.576;2023-05-12T14:13:17;96838.77;;;12.21;50.30
61357;BME280;47227;46.752;23.576;2023-05-12T14:15:47;96838.80;;;12.24;49.81
61357;BME280;47227;46.752;23.576;2023-05-12T14:18:29;96842.93;;;12.30;49.83
61357;BME280;47227;46.752;23.576;2023-05-12T14:20:57;96843.93;;;12.39;49.70
61357;BME280;47227;46.752;23.576;2023-05-12T14:23:48;96846.47;;;12.52;49.54
61357;BME280;47227;46.752;23.576;2023-05-12T14:26:26;96844.74;;;12.62;49.56
61357;BME280;47227;46.752;23.576;2023-05-12T14:29:00;96843.51;;;12.56;49.07
61357;BME280;47227;46.752;23.576;2023-05-12T14:31:31;96842.45;;;12.56;49.07
61357;BME280;47227;46.752;23.576;2023-05-12T14:34:17;96838.59;;;12.46;49.26
61357;BME280;47227;46.752;23.576;2023-05-12T14:36:49;96833.88;;;12.30;49.95
61357;BME280;47227;46.752;23.576;2023-05-12T14:39:18;96831.54;;;12.24;49.77
61357;BME280;47227;46.752;23.576;2023-05-12T14:41:46;96833.36;;;12.15;50.26
61357;BME280;47227;46.752;23.576;2023-05-12T14:44:15;96834.38;;;12.07;51.28
61357;BME280;47227;46.752;23.576;2023-05-12T14:46:44;96835.96;;;12.04;51.00
61357;BME280;47227;46.752;23.576;2023-05-12T14:49:13;96831.96;;;11.97;51.79
61357;BME280;47227;46.752;23.576;2023-05-12T14:51:41;96828.95;;;11.91;52.16
61357;BME280;47227;46.752;23.576;2023-05-12T14:54:10;96832.10;;;11.95;52.35
61357;BME280;47227;46.752;23.576;2023-05-12T14:56:52;96832.88;;;12.05;52.72
61357;BME280;47227;46.752;23.576;2023-05-12T14:59:20;96835.52;;;12.14;52.38
61357;BME280;47227;46.752;23.576;2023-05-12T15:01:48;96836.14;;;12.18;52.42
61357;BME280;47227;46.752;23.576;2023-05-12T15:04:17;96836.88;;;12.17;51.80
61357;BME280;47227;46.752;23.576;2023-05-12T15:06:46;96836.04;;;12.19;51.47
61357;BME280;47227;46.752;23.576;2023-05-12T15:09:14;96835.92;;;12.21;51.86
61357;BME280;47227;46.752;23.576;2023-05-12T15:11:42;96836.92;;;12.21;51.83
61357;BME280;47227;46.752;23.576;2023-05-12T15:14:12;96832.04;;;12.17;51.91
61357;BME280;47227;46.752;23.576;2023-05-12T15:16:41;96832.80;;;12.12;51.89
61357;BME280;47227;46.752;23.576;2023-05-12T15:19:09;96829.69;;;12.11;51.96
61357;BME280;47227;46.752;23.576;2023-05-12T15:21:37;96824.59;;;11.99;52.69
61357;BME280;47227;46.752;23.576;2023-05-12T15:24:12;96822.83;;;11.89;53.06
61357;BME280;47227;46.752;23.576;2023-05-12T15:26:40;96822.89;;;11.81;52.52
61357;BME280;47227;46.752;23.576;2023-05-12T15:29:08;96822.54;;;11.78;52.28
61357;BME280;47227;46.752;23.576;2023-05-12T15:31:36;96822.76;;;11.75;52.22
61357;BME280;47227;46.752;23.576;2023-05-12T15:34:25;96822.88;;;11.70;51.99
61357;BME280;47227;46.752;23.576;2023-05-12T15:36:53;96824.27;;;11.51;51.61
61357;BME280;47227;46.752;23.576;2023-05-12T15:39:21;96822.01;;;11.40;51.55
61357;BME280;47227;46.752;23.576;2023-05-12T15:41:50;96818.00;;;11.29;51.77
61357;BME280;47227;46.752;23.576;2023-05-12T15:44:18;96814.19;;;11.15;51.79
61357;BME280;47227;46.752;23.576;2023-05-12T15:46:47;96815.21;;;11.04;52.42
61357;BME280;47227;46.752;23.576;2023-05-12T15:49:15;96812.94;;;10.97;52.67
61357;BME280;47227;46.752;23.576;2023-05-12T15:51:43;96818.75;;;10.87;53.31
61357;BME280;47227;46.752;23.576;2023-05-12T15:54:11;96816.41;;;10.82;53.63
61357;BME280;47227;46.752;23.576;2023-05-12T15:56:39;96816.91;;;10.78;53.34
61357;BME280;47227;46.752;23.576;2023-05-12T15:59:08;96816.14;;;10.70;53.53
61357;BME280;47227;46.752;23.576;2023-05-12T16:01:39;96811.76;;;10.66;53.16
61357;BME280;47227;46.752;23.576;2023-05-12T16:04:07;96810.61;;;10.61;53.46
61357;BME280;47227;46.752;23.576;2023-05-12T16:06:35;96816.73;;;10.57;53.51
61357;BME280;47227;46.752;23.576;2023-05-12T16:09:03;96816.71;;;10.54;53.64
61357;BME280;47227;46.752;23.576;2023-05-12T16:11:31;96821.16;;;10.48;53.70
61357;BME280;47227;46.752;23.576;2023-05-12T16:14:02;96821.17;;;10.37;53.98
61357;BME280;47227;46.752;23.576;2023-05-12T16:16:31;96829.81;;;10.27;55.03
61357;BME280;47227;46.752;23.576;2023-05-12T16:19:02;96827.77;;;10.21;55.33
61357;BME280;47227;46.752;23.576;2023-05-12T16:21:30;96832.23;;;10.18;55.05
61357;BME280;47227;46.752;23.576;2023-05-12T16:23:59;96832.98;;;10.16;55.44
61357;BME280;47227;46.752;23.576;2023-05-12T16:26:27;96830.64;;;10.14;55.98
61357;BME280;47227;46.752;23.576;2023-05-12T16:28:56;96833.30;;;10.13;55.88
61357;BME280;47227;46.752;23.576;2023-05-12T16:31:24;96833.24;;;10.14;56.36
61357;BME280;47227;46.752;23.576;2023-05-12T16:33:52;96836.48;;;10.13;56.53
61357;BME280;47227;46.752;23.576;2023-05-12T16:36:20;96840.27;;;10.11;56.73
61357;BME280;47227;46.752;23.576;2023-05-12T16:38:48;96841.33;;;10.06;56.47
61357;BME280;47227;46.752;23.576;2023-05-12T16:41:16;96843.81;;;10.03;57.14
61357;BME280;47227;46.752;23.576;2023-05-12T16:43:45;96841.94;;;9.96;57.34
61357;BME280;47227;46.752;23.576;2023-05-12T16:46:13;96842.71;;;9.93;57.32
61357;BME280;47227;46.752;23.576;2023-05-12T16:48:41;96840.38;;;9.89;57.62
61357;BME280;47227;46.752;23.576;2023-05-12T16:51:09;96843.87;;;9.88;57.65
61357;BME280;47227;46.752;23.576;2023-05-12T16:53:38;96844.09;;;9.87;57.99
61357;BME280;47227;46.752;23.576;2023-05-12T16:56:08;96844.32;;;9.83;58.26
61357;BME280;47227;46.752;23.576;2023-05-12T16:58:36;96844.55;;;9.81;58.45
61357;BME280;47227;46.752;23.576;2023-05-12T17:01:04;96848.48;;;9.82;58.15
61357;BME280;47227;46.752;23.576;2023-05-12T17:03:33;96847.16;;;9.79;58.23
61357;BME280;47227;46.752;23.576;2023-05-12T17:06:01;96850.56;;;9.76;58.62